Time;durP1;ratioP1;P1;durP2;ratioP2;P2;SDS_P1;SDS_P2;PMS_P1;PMS_P2;Temp;Humidity;BMP_temperature;BMP_pressure;BME280_temperature;BME280_humidity;BME280_pressure;Samples;Min_cycle;Max_cycle;Signal;HPM_P1;HPM_P2
2023/09/19 00:00:57;;;;;;;3.63;2.13;;;15.90;99.90;;;;;;5033999;28;20452;-62
2023/09/19 00:03:24;;;;;;;4.00;2.20;;;15.90;99.90;;;;;;5034581;28;20436;-62
2023/09/19 00:05:52;;;;;;;3.27;2.53;;;16.00;99.90;;;;;;5033488;28;20463;-61
2023/09/19 00:08:23;;;;;;;2.30;2.10;;;16.00;99.90;;;;;;5033031;28;20434;-62
2023/09/19 00:10:49;;;;;;;2.40;2.10;;;16.10;99.90;;;;;;5033505;28;20434;-62
2023/09/19 00:13:16;;;;;;;3.20;2.50;;;16.10;99.90;;;;;;5033836;28;20444;-61
2023/09/19 00:15:48;;;;;;;4.30;3.13;;;16.20;99.90;;;;;;5033075;28;20448;-62
2023/09/19 00:18:17;;;;;;;3.87;2.83;;;16.20;99.90;;;;;;5032938;28;20869;-61
2023/09/19 00:20:47;;;;;;;2.70;2.30;;;16.20;99.90;;;;;;5032865;28;20446;-61
2023/09/19 00:23:16;;;;;;;3.13;2.83;;;16.20;99.90;;;;;;5032979;28;20452;-61
2023/09/19 00:25:43;;;;;;;2.93;2.63;;;16.20;99.90;;;;;;5033766;28;20870;-63
2023/09/19 00:28:10;;;;;;;4.20;2.30;;;16.20;99.90;;;;;;5035522;28;20465;-61
2023/09/19 00:30:38;;;;;;;3.20;2.80;;;16.20;99.90;;;;;;5037245;28;20472;-61
2023/09/19 00:33:07;;;;;;;4.73;2.70;;;16.20;99.90;;;;;;5037876;28;20971;-60
2023/09/19 00:35:34;;;;;;;3.17;2.80;;;16.20;99.90;;;;;;5037178;28;20476;-62
2023/09/19 00:38:01;;;;;;;3.10;2.90;;;16.30;99.90;;;;;;5037866;28;20586;-61
2023/09/19 00:40:29;;;;;;;4.40;3.20;;;16.30;99.90;;;;;;5037343;28;20455;-61
2023/09/19 00:42:59;;;;;;;4.27;3.23;;;16.30;99.90;;;;;;5038985;28;20486;-62
2023/09/19 00:45:26;;;;;;;3.47;3.17;;;16.40;99.90;;;;;;5037592;28;20536;-61
2023/09/19 00:47:53;;;;;;;3.83;3.43;;;16.40;99.90;;;;;;5037904;28;20961;-61
2023/09/19 00:50:23;;;;;;;4.07;2.87;;;16.40;99.90;;;;;;5038923;28;20474;-61
2023/09/19 00:52:51;;;;;;;3.70;3.40;;;16.40;99.90;;;;;;5037148;28;20447;-61
2023/09/19 00:55:19;;;;;;;4.80;3.03;;;16.40;99.90;;;;;;5037616;28;20458;-62
2023/09/19 00:57:49;;;;;;;4.13;3.40;;;16.30;99.90;;;;;;5036894;28;20530;-62
2023/09/19 01:00:19;;;;;;;4.03;3.07;;;16.30;99.90;;;;;;5037818;28;20503;-62
2023/09/19 01:02:47;;;;;;;3.37;3.10;;;16.30;99.90;;;;;;5037614;28;20802;-61
2023/09/19 01:05:14;;;;;;;4.20;3.13;;;16.30;99.90;;;;;;5037760;28;20510;-62
2023/09/19 01:07:41;;;;;;;3.10;2.70;;;16.30;99.90;;;;;;5037422;28;20441;-61
2023/09/19 01:10:11;;;;;;;3.87;3.13;;;16.30;99.90;;;;;;5036951;28;20960;-61
2023/09/19 01:12:50;;;;;;;4.93;3.50;;;16.20;99.90;;;;;;5037563;28;20458;-64
2023/09/19 01:15:27;;;;;;;4.33;3.60;;;16.20;99.90;;;;;;5036576;28;20491;-61
2023/09/19 01:18:02;;;;;;;4.57;3.47;;;16.30;99.90;;;;;;5036387;28;20474;-61
2023/09/19 01:20:40;;;;;;;5.67;3.53;;;16.20;99.90;;;;;;5036345;28;20458;-62
2023/09/19 01:23:17;;;;;;;4.13;3.60;;;16.20;99.90;;;;;;5036616;28;20424;-60
2023/09/19 01:26:27;;;;;;;4.00;3.50;;;16.20;99.90;;;;;;5037330;28;20433;-61
2023/09/19 01:29:07;;;;;;;8.60;4.10;;;16.20;99.90;;;;;;5036364;28;20423;-61
2023/09/19 01:31:41;;;;;;;4.60;3.93;;;16.20;99.90;;;;;;5037671;28;20424;-60
2023/09/19 01:34:08;;;;;;;4.83;4.40;;;16.20;99.90;;;;;;5036588;28;20504;-61
2023/09/19 01:36:38;;;;;;;4.83;4.10;;;16.20;99.90;;;;;;5035927;28;20448;-61
2023/09/19 01:39:09;;;;;;;4.87;4.30;;;16.30;99.90;;;;;;5036361;28;20484;-61
2023/09/19 01:41:49;;;;;;;4.53;4.13;;;16.20;99.90;;;;;;5035784;28;20929;-61
2023/09/19 01:44:23;;;;;;;6.40;4.60;;;16.20;99.90;;;;;;5037108;28;20924;-61
2023/09/19 01:46:51;;;;;;;5.87;4.47;;;16.20;99.90;;;;;;5036711;28;20428;-61
2023/09/19 01:49:28;;;;;;;5.03;4.20;;;16.20;99.90;;;;;;5035854;28;20450;-61
2023/09/19 01:52:04;;;;;;;4.70;4.30;;;16.20;99.90;;;;;;5036497;28;20439;-61
2023/09/19 01:54:37;;;;;;;4.77;3.93;;;16.20;99.90;;;;;;5036205;28;20835;-60
2023/09/19 01:57:09;;;;;;;7.30;4.33;;;16.20;99.90;;;;;;5036101;28;20463;-61
2023/09/19 01:59:40;;;;;;;5.33;4.57;;;16.20;99.90;;;;;;5035835;28;20539;-59
2023/09/19 02:02:10;;;;;;;6.70;4.27;;;16.30;99.90;;;;;;5036823;28;20789;-61
2023/09/19 02:04:37;;;;;;;6.03;4.60;;;16.30;99.90;;;;;;5036594;28;20884;-61
2023/09/19 02:07:07;;;;;;;5.20;4.13;;;16.30;99.90;;;;;;5038944;28;20451;-61
2023/09/19 02:09:35;;;;;;;5.43;4.53;;;16.30;99.90;;;;;;5039733;28;20448;-61
2023/09/19 02:12:04;;;;;;;7.23;4.27;;;16.20;99.90;;;;;;5036154;28;20444;-61
2023/09/19 02:14:32;;;;;;;5.30;4.80;;;16.20;99.90;;;;;;5037043;28;20468;-61
2023/09/19 02:16:59;;;;;;;7.00;5.30;;;16.30;99.90;;;;;;5038256;28;20820;-61
2023/09/19 02:19:27;;;;;;;6.67;4.87;;;16.40;99.90;;;;;;5039310;28;20503;-61
2023/09/19 02:21:54;;;;;;;6.70;4.53;;;16.40;99.90;;;;;;5036440;28;20499;-61
2023/09/19 02:24:21;;;;;;;8.17;4.80;;;16.50;99.90;;;;;;5036112;28;20469;-62
2023/09/19 02:26:48;;;;;;;5.60;4.03;;;16.50;99.90;;;;;;5035831;28;20444;-62
2023/09/19 02:29:15;;;;;;;7.80;4.40;;;16.50;99.90;;;;;;5035923;28;20450;-61
2023/09/19 02:31:41;;;;;;;4.90;4.20;;;16.50;99.90;;;;;;5035494;28;20444;-62
2023/09/19 02:34:09;;;;;;;5.80;4.77;;;16.50;99.90;;;;;;5063098;22;20485;-62
2023/09/19 02:36:37;;;;;;;8.07;5.30;;;16.50;99.90;;;;;;5055504;28;20452;-61
2023/09/19 02:39:08;;;;;;;6.90;5.20;;;16.50;99.90;;;;;;5055218;28;20551;-62
2023/09/19 02:41:35;;;;;;;6.37;5.13;;;16.40;99.90;;;;;;5054907;28;20451;-61
2023/09/19 02:44:02;;;;;;;9.43;4.90;;;16.40;99.90;;;;;;5054675;28;20546;-63
2023/09/19 02:46:29;;;;;;;6.33;5.47;;;16.30;99.90;;;;;;5054907;28;20447;-62
2023/09/19 02:48:56;;;;;;;8.70;5.50;;;16.20;99.90;;;;;;5054397;28;20443;-62
2023/09/19 02:51:23;;;;;;;6.30;4.97;;;16.20;99.90;;;;;;5053381;28;20476;-62
2023/09/19 02:53:53;;;;;;;13.67;5.73;;;16.20;99.90;;;;;;5054653;28;20522;-62
2023/09/19 02:56:22;;;;;;;8.10;5.37;;;16.20;99.90;;;;;;5054237;28;20938;-62
2023/09/19 02:58:49;;;;;;;7.60;5.27;;;16.10;99.90;;;;;;5054591;28;20492;-62
2023/09/19 03:01:16;;;;;;;8.17;5.63;;;16.10;99.90;;;;;;5054169;28;20942;-62
2023/09/19 03:03:43;;;;;;;6.90;5.10;;;16.10;99.90;;;;;;5054371;28;20534;-63
2023/09/19 03:06:10;;;;;;;10.07;6.17;;;16.00;99.90;;;;;;5054313;28;20464;-62
2023/09/19 03:08:39;;;;;;;8.47;5.27;;;16.00;99.90;;;;;;5054528;28;20443;-61
2023/09/19 03:11:11;;;;;;;8.30;5.73;;;15.90;99.90;;;;;;5054325;28;20449;-62
2023/09/19 03:13:39;;;;;;;7.20;5.53;;;15.90;99.90;;;;;;5054336;28;20434;-64
2023/09/19 03:16:06;;;;;;;9.43;5.63;;;15.90;99.90;;;;;;5053985;28;20454;-62
2023/09/19 03:18:35;;;;;;;5.53;4.70;;;15.90;99.90;;;;;;5053917;28;20475;-62
2023/09/19 03:21:02;;;;;;;9.87;4.90;;;15.80;99.90;;;;;;5054340;28;20447;-62
2023/09/19 03:23:29;;;;;;;5.77;4.63;;;15.80;99.90;;;;;;5054634;28;20446;-61
2023/09/19 03:25:57;;;;;;;7.00;4.97;;;15.70;99.90;;;;;;5054531;28;20493;-62
2023/09/19 03:28:25;;;;;;;8.73;4.40;;;15.70;99.90;;;;;;5054542;28;20513;-62
2023/09/19 03:31:10;;;;;;;9.63;4.10;;;15.60;99.90;;;;;;5054605;28;20527;-61
2023/09/19 03:33:37;;;;;;;4.90;3.73;;;15.60;99.90;;;;;;5054173;28;20917;-63
2023/09/19 03:36:05;;;;;;;5.90;4.03;;;15.60;99.90;;;;;;5054277;28;20999;-61
2023/09/19 03:38:33;;;;;;;5.83;3.47;;;15.50;99.90;;;;;;5054293;28;20547;-61
2023/09/19 03:41:00;;;;;;;5.13;3.60;;;15.50;99.90;;;;;;5054587;28;20451;-61
2023/09/19 03:43:28;;;;;;;5.80;3.30;;;15.50;99.90;;;;;;5053974;28;20946;-63
2023/09/19 03:45:55;;;;;;;9.50;4.20;;;15.50;99.90;;;;;;5054130;28;20480;-62
2023/09/19 03:48:22;;;;;;;6.43;4.13;;;15.50;99.90;;;;;;5054438;28;20490;-62
2023/09/19 03:50:49;;;;;;;7.80;3.80;;;15.40;99.90;;;;;;5053679;28;20457;-61
2023/09/19 03:53:16;;;;;;;10.00;3.90;;;15.40;99.90;;;;;;5053516;28;20822;-61
2023/09/19 03:55:45;;;;;;;3.80;3.00;;;15.40;99.90;;;;;;5053602;28;20470;-60
2023/09/19 03:58:12;;;;;;;6.33;4.03;;;15.40;99.90;;;;;;5053334;28;20476;-62
2023/09/19 04:03:07;;;;;;;6.17;3.33;;;15.50;99.90;;;;;;5054362;22;20496;-62
2023/09/19 04:05:34;;;;;;;4.67;3.27;;;15.50;99.90;;;;;;5032753;28;20202;-61
2023/09/19 04:08:01;;;;;;;4.40;3.57;;;15.40;99.90;;;;;;5032960;28;20429;-60
2023/09/19 04:12:17;;;;;;;9.57;4.37;;;15.30;99.90;;;;;;5111086;27;20623;-61
2023/09/19 04:14:44;;;;;;;21.20;5.37;;;15.30;99.90;;;;;;5114890;28;20503;-62
2023/09/19 04:17:11;;;;;;;7.13;3.80;;;15.30;99.90;;;;;;5115788;28;20496;-60
2023/09/19 04:19:38;;;;;;;9.57;3.93;;;15.20;99.90;;;;;;5111831;28;20939;-62
2023/09/19 04:22:05;;;;;;;6.80;3.73;;;15.20;99.90;;;;;;5110602;28;20978;-61
2023/09/19 04:24:32;;;;;;;6.10;3.80;;;15.20;99.90;;;;;;5110170;28;20833;-62
2023/09/19 04:26:59;;;;;;;5.10;4.00;;;15.10;99.90;;;;;;5111098;28;20448;-62
2023/09/19 04:29:29;;;;;;;5.57;3.40;;;15.10;99.90;;;;;;5110547;28;21041;-62
2023/09/19 04:31:57;;;;;;;6.70;3.60;;;15.10;99.90;;;;;;5111780;28;20519;-62
2023/09/19 04:34:24;;;;;;;9.23;4.50;;;15.10;99.90;;;;;;5111929;28;20494;-59
2023/09/19 04:36:51;;;;;;;8.60;4.03;;;15.00;99.90;;;;;;5110894;28;20444;-62
2023/09/19 04:39:17;;;;;;;7.23;4.30;;;15.00;99.90;;;;;;5110590;28;20438;-61
2023/09/19 04:41:44;;;;;;;12.83;4.80;;;15.00;99.90;;;;;;5111005;28;20457;-61
2023/09/19 04:44:12;;;;;;;7.50;4.20;;;14.90;99.90;;;;;;5111421;28;20434;-61
2023/09/19 04:46:40;;;;;;;8.63;4.40;;;14.90;99.90;;;;;;5110880;28;20481;-61
2023/09/19 04:49:07;;;;;;;4.80;4.30;;;14.90;99.90;;;;;;5110947;28;20943;-59
2023/09/19 04:51:36;;;;;;;9.07;4.07;;;14.90;99.90;;;;;;5110522;28;20478;-61
2023/09/19 04:54:03;;;;;;;9.13;4.47;;;14.90;99.90;;;;;;5110017;28;20878;-61
2023/09/19 04:56:29;;;;;;;6.93;4.73;;;14.90;99.90;;;;;;5110735;28;20446;-62
2023/09/19 04:58:58;;;;;;;6.80;4.53;;;14.90;99.90;;;;;;5111565;28;20467;-62
2023/09/19 05:01:25;;;;;;;9.20;4.80;;;14.80;99.90;;;;;;5110951;28;20503;-62
2023/09/19 05:03:53;;;;;;;10.67;5.40;;;14.80;99.90;;;;;;5111669;28;20434;-61
2023/09/19 05:06:20;;;;;;;10.10;5.90;;;14.80;99.90;;;;;;5110947;28;20434;-61
2023/09/19 05:08:50;;;;;;;7.87;5.20;;;14.80;99.90;;;;;;5110585;28;20555;-61
2023/09/19 05:11:18;;;;;;;12.60;5.67;;;14.80;99.90;;;;;;5110406;28;20513;-63
2023/09/19 05:13:44;;;;;;;7.27;5.90;;;14.80;99.90;;;;;;5112096;28;20491;-61
2023/09/19 05:16:12;;;;;;;11.73;6.10;;;14.80;99.90;;;;;;5111866;28;20437;-61
2023/09/19 05:18:39;;;;;;;15.50;7.83;;;14.80;99.90;;;;;;5110985;28;20945;-59
2023/09/19 05:21:07;;;;;;;12.30;6.63;;;14.90;99.90;;;;;;5110862;28;20564;-61
2023/09/19 05:23:34;;;;;;;7.57;6.50;;;14.90;99.90;;;;;;5097823;28;20455;-62
2023/09/19 05:26:01;;;;;;;11.60;7.00;;;14.90;99.90;;;;;;5096982;28;20445;-61
2023/09/19 05:28:29;;;;;;;8.10;6.30;;;15.00;99.90;;;;;;5096504;28;20445;-62
2023/09/19 05:30:56;;;;;;;11.33;7.03;;;15.00;99.90;;;;;;5097220;28;20478;-60
2023/09/19 05:33:23;;;;;;;10.03;6.33;;;15.10;99.90;;;;;;5096779;28;20446;-61
2023/09/19 05:35:49;;;;;;;10.93;6.77;;;15.10;99.90;;;;;;5096852;28;20436;-60
2023/09/19 05:38:19;;;;;;;7.60;6.40;;;15.10;99.90;;;;;;5096599;28;20442;-61
2023/09/19 05:40:46;;;;;;;7.30;6.23;;;15.10;99.90;;;;;;5096953;28;20538;-61
2023/09/19 05:43:14;;;;;;;10.40;7.67;;;15.20;99.90;;;;;;5096638;28;20435;-62
2023/09/19 05:45:40;;;;;;;10.17;7.00;;;15.20;99.90;;;;;;5096894;28;20441;-61
2023/09/19 05:48:13;;;;;;;14.13;6.70;;;15.20;99.90;;;;;;5096418;28;20461;-61
2023/09/19 05:50:40;;;;;;;10.77;6.70;;;15.20;99.90;;;;;;5097531;28;20917;-62
2023/09/19 05:53:07;;;;;;;11.50;6.30;;;15.20;99.90;;;;;;5097314;28;20495;-59
2023/09/19 05:55:35;;;;;;;7.97;6.17;;;15.20;99.90;;;;;;5096075;28;20442;-58
2023/09/19 05:58:03;;;;;;;10.57;6.83;;;15.20;99.90;;;;;;5095929;28;21023;-62
2023/09/19 06:00:31;;;;;;;9.20;5.93;;;15.20;99.90;;;;;;5095926;28;20443;-61
2023/09/19 06:02:59;;;;;;;13.90;6.80;;;15.30;99.90;;;;;;5096524;28;20474;-62
2023/09/19 06:05:27;;;;;;;7.30;6.10;;;15.30;99.90;;;;;;5095632;28;20439;-61
2023/09/19 06:07:55;;;;;;;10.53;6.13;;;15.30;99.90;;;;;;5096110;28;20448;-62
2023/09/19 06:10:22;;;;;;;8.40;5.60;;;15.30;99.90;;;;;;5095856;28;20458;-62
2023/09/19 06:12:50;;;;;;;9.30;5.40;;;15.30;99.90;;;;;;5096031;28;20464;-61
2023/09/19 06:15:18;;;;;;;9.23;6.10;;;15.30;99.90;;;;;;5095729;28;21050;-61
2023/09/19 06:17:48;;;;;;;10.23;5.40;;;15.30;99.90;;;;;;5096882;28;20445;-62
2023/09/19 06:20:16;;;;;;;9.57;6.20;;;15.40;99.90;;;;;;5095377;28;20872;-61
2023/09/19 06:22:45;;;;;;;6.80;5.63;;;15.40;99.90;;;;;;5095541;28;20505;-61
2023/09/19 06:25:15;;;;;;;7.90;5.13;;;15.50;99.90;;;;;;5096905;28;20434;-62
2023/09/19 06:27:44;;;;;;;11.13;6.40;;;15.50;99.90;;;;;;5095312;28;20430;-61
2023/09/19 06:30:13;;;;;;;9.20;5.90;;;15.60;99.90;;;;;;5095567;28;20897;-62
2023/09/19 06:32:40;;;;;;;8.23;6.77;;;15.60;99.90;;;;;;5095677;28;20490;-62
2023/09/19 06:35:10;;;;;;;9.20;5.50;;;15.70;99.90;;;;;;5103202;28;20447;-61
2023/09/19 06:37:38;;;;;;;14.90;6.00;;;15.70;99.90;;;;;;5102604;28;20536;-62
2023/09/19 06:40:08;;;;;;;11.40;5.90;;;15.80;99.90;;;;;;5096688;28;20515;-62
2023/09/19 06:42:36;;;;;;;8.80;6.07;;;15.80;99.90;;;;;;5096386;28;20547;-62
2023/09/19 06:45:05;;;;;;;8.83;5.97;;;15.90;99.90;;;;;;5095845;28;20859;-62
2023/09/19 06:47:33;;;;;;;11.70;5.10;;;15.90;99.90;;;;;;5095786;28;20900;-62
2023/09/19 06:50:02;;;;;;;8.43;5.00;;;16.00;99.90;;;;;;5095201;28;20965;-62
2023/09/19 06:52:29;;;;;;;10.27;5.70;;;16.00;99.90;;;;;;5096096;28;20528;-61
2023/09/19 06:54:56;;;;;;;9.10;5.23;;;16.00;99.90;;;;;;5095218;28;20827;-61
2023/09/19 06:57:24;;;;;;;10.30;5.93;;;16.10;99.90;;;;;;5095454;28;20507;-62
2023/09/19 06:59:51;;;;;;;5.93;4.70;;;16.10;99.90;;;;;;5094733;28;20444;-61
2023/09/19 07:02:18;;;;;;;7.83;4.63;;;16.20;99.90;;;;;;5095289;28;20473;-61
2023/09/19 07:04:46;;;;;;;19.57;5.10;;;16.30;99.90;;;;;;5095432;28;20480;-62
2023/09/19 07:07:13;;;;;;;5.57;3.67;;;16.30;99.90;;;;;;5095435;28;20483;-62
2023/09/19 07:09:42;;;;;;;11.40;3.87;;;16.40;99.90;;;;;;5095174;28;20536;-62
2023/09/19 07:12:09;;;;;;;7.87;3.57;;;16.30;99.90;;;;;;5094672;28;20476;-61
2023/09/19 07:14:35;;;;;;;5.80;2.90;;;16.40;99.90;;;;;;5095324;28;20448;-62
2023/09/19 07:17:03;;;;;;;7.17;2.83;;;16.40;99.90;;;;;;5095390;28;20534;-62
2023/09/19 07:19:31;;;;;;;8.33;2.87;;;16.40;99.90;;;;;;5094396;28;20448;-61
2023/09/19 07:22:02;;;;;;;6.30;3.60;;;16.40;99.90;;;;;;5095285;28;20555;-62
2023/09/19 07:24:29;;;;;;;5.47;3.60;;;16.50;99.90;;;;;;5095209;28;20425;-62
2023/09/19 07:26:56;;;;;;;5.20;2.67;;;16.50;99.90;;;;;;5094535;28;20856;-62
2023/09/19 07:29:22;;;;;;;6.77;3.00;;;16.60;99.90;;;;;;5094342;28;20510;-62
2023/09/19 07:31:49;;;;;;;5.70;2.97;;;16.70;99.90;;;;;;5094311;28;20483;-62
2023/09/19 07:34:16;;;;;;;5.50;2.30;;;16.70;99.90;;;;;;5094696;28;20444;-61
2023/09/19 07:36:43;;;;;;;6.70;2.63;;;16.70;99.60;;;;;;5095855;28;20444;-61
2023/09/19 07:39:11;;;;;;;6.00;1.93;;;16.80;99.40;;;;;;5094209;28;20455;-61
2023/09/19 07:41:38;;;;;;;4.07;1.90;;;16.90;98.80;;;;;;5093862;28;20466;-62
2023/09/19 07:44:05;;;;;;;6.80;2.57;;;16.90;97.70;;;;;;5093925;28;20791;-61
2023/09/19 07:46:32;;;;;;;5.23;1.80;;;16.90;97.30;;;;;;5093624;28;20436;-62
2023/09/19 07:49:00;;;;;;;8.83;2.53;;;16.90;96.50;;;;;;5093937;28;20927;-60
2023/09/19 07:51:26;;;;;;;10.03;2.50;;;16.90;96.20;;;;;;5094164;28;20483;-62
2023/09/19 07:53:54;;;;;;;6.40;2.30;;;17.00;95.80;;;;;;5094272;28;20443;-63
2023/09/19 07:56:23;;;;;;;9.40;2.10;;;17.00;95.60;;;;;;5094898;28;20461;-61
2023/09/19 07:58:50;;;;;;;8.17;2.07;;;17.00;95.00;;;;;;5095238;28;20446;-61
2023/09/19 08:01:17;;;;;;;9.70;2.60;;;17.00;94.70;;;;;;5100678;28;20472;-61
2023/09/19 08:03:44;;;;;;;6.30;2.20;;;17.00;94.50;;;;;;5098507;28;20447;-62
2023/09/19 08:06:11;;;;;;;8.97;2.40;;;17.10;94.30;;;;;;5099583;28;20510;-62
2023/09/19 08:08:38;;;;;;;10.17;2.67;;;17.20;94.00;;;;;;5100601;28;20504;-61
2023/09/19 08:11:11;;;;;;;4.30;2.20;;;17.30;93.50;;;;;;5099866;28;20472;-62
2023/09/19 08:13:43;;;;;;;15.10;2.90;;;17.30;93.10;;;;;;5105356;28;20463;-62
2023/09/19 08:16:10;;;;;;;5.60;2.30;;;17.40;92.50;;;;;;5104651;28;20429;-62
2023/09/19 08:18:37;;;;;;;7.00;2.60;;;17.40;92.50;;;;;;5105243;28;20445;-62
2023/09/19 08:21:04;;;;;;;9.20;2.30;;;17.50;91.90;;;;;;5096150;28;20518;-62
2023/09/19 08:23:32;;;;;;;7.33;2.30;;;17.50;91.50;;;;;;5096583;28;20456;-61
2023/09/19 08:26:02;;;;;;;5.23;2.43;;;17.60;91.30;;;;;;5094739;28;20449;-61
2023/09/19 08:28:29;;;;;;;9.30;2.27;;;17.60;90.70;;;;;;5095431;28;20961;-61
2023/09/19 08:31:01;;;;;;;6.70;2.07;;;17.60;90.10;;;;;;5096691;28;20441;-61
2023/09/19 08:33:28;;;;;;;8.03;2.70;;;17.70;89.60;;;;;;5093503;28;20995;-62
2023/09/19 08:35:57;;;;;;;7.83;2.00;;;17.70;87.40;;;;;;5094279;28;20872;-61
2023/09/19 08:38:23;;;;;;;4.50;1.80;;;17.70;86.80;;;;;;5094114;28;20444;-61
2023/09/19 08:40:50;;;;;;;5.70;2.37;;;17.70;85.70;;;;;;5093409;28;20973;-62
2023/09/19 08:43:17;;;;;;;4.20;2.13;;;17.80;85.40;;;;;;5093985;28;20444;-62
2023/09/19 08:45:44;;;;;;;3.00;1.90;;;17.80;84.10;;;;;;5093157;28;20453;-62
2023/09/19 08:48:24;;;;;;;6.47;2.10;;;17.80;83.20;;;;;;5095962;28;20536;-61
2023/09/19 08:50:55;;;;;;;5.17;2.17;;;17.80;83.00;;;;;;5098021;28;20421;-60
2023/09/19 08:53:29;;;;;;;4.67;2.30;;;17.80;82.80;;;;;;5096955;28;20466;-62
2023/09/19 08:55:57;;;;;;;4.83;2.07;;;17.90;82.10;;;;;;5101879;28;20429;-62
2023/09/19 08:58:29;;;;;;;4.30;1.97;;;18.00;81.70;;;;;;5102104;28;20446;-62
2023/09/19 09:00:57;;;;;;;6.17;1.90;;;18.00;81.30;;;;;;5101280;28;20469;-62
2023/09/19 09:03:26;;;;;;;5.73;2.20;;;18.10;80.30;;;;;;5098061;28;20473;-62
2023/09/19 09:05:53;;;;;;;3.87;2.37;;;18.10;79.80;;;;;;5098254;28;20471;-61
2023/09/19 09:08:21;;;;;;;7.10;2.40;;;18.30;80.00;;;;;;5097275;28;20535;-62
2023/09/19 09:10:48;;;;;;;6.80;2.63;;;18.40;80.00;;;;;;5096456;28;20472;-63
2023/09/19 09:13:15;;;;;;;8.00;2.60;;;18.50;79.70;;;;;;5096668;28;20482;-63
2023/09/19 09:15:44;;;;;;;4.43;2.30;;;18.60;79.40;;;;;;5097746;28;20451;-62
2023/09/19 09:18:11;;;;;;;4.23;2.03;;;18.60;78.40;;;;;;5096639;28;20442;-62
2023/09/19 09:20:39;;;;;;;7.20;2.10;;;18.70;77.70;;;;;;5096932;28;20444;-62
2023/09/19 09:23:06;;;;;;;5.73;2.23;;;18.60;77.30;;;;;;5096688;28;20454;-62
2023/09/19 09:25:54;;;;;;;5.07;2.07;;;18.60;76.90;;;;;;5097535;28;20517;-62
2023/09/19 09:28:22;;;;;;;4.40;2.30;;;18.60;76.80;;;;;;5096677;28;20482;-62
2023/09/19 09:30:50;;;;;;;2.97;2.00;;;18.60;77.00;;;;;;5096629;28;20446;-59
2023/09/19 09:33:18;;;;;;;6.50;2.00;;;18.60;76.80;;;;;;5097462;28;20999;-62
2023/09/19 09:35:56;;;;;;;8.40;2.17;;;18.80;76.80;;;;;;5097653;28;20453;-61
2023/09/19 09:38:27;;;;;;;4.93;3.03;;;18.90;76.00;;;;;;5098477;28;20462;-61
2023/09/19 09:41:01;;;;;;;8.17;2.90;;;19.10;75.70;;;;;;5096786;28;20434;-62
2023/09/19 09:43:30;;;;;;;5.17;2.30;;;19.10;74.80;;;;;;5096115;28;20502;-63
2023/09/19 09:49:26;;;;;;;5.53;2.20;;;19.40;73.50;;;;;;5096485;28;20817;-63
2023/09/19 09:52:05;;;;;;;4.83;1.77;;;19.50;73.00;;;;;;5095511;28;21033;-62
2023/09/19 09:54:36;;;;;;;4.63;1.73;;;19.60;72.50;;;;;;5096747;28;20888;-62
2023/09/19 09:57:13;;;;;;;2.90;2.13;;;19.60;71.70;;;;;;5095910;28;20434;-62
2023/09/19 09:59:55;;;;;;;3.57;1.77;;;19.70;70.40;;;;;;5098309;28;20971;-64
2023/09/19 10:02:28;;;;;;;4.80;1.97;;;19.70;69.70;;;;;;5105787;28;20454;-63
2023/09/19 10:05:08;;;;;;;5.40;2.07;;;19.70;69.40;;;;;;5106271;28;20430;-62
2023/09/19 10:07:40;;;;;;;4.30;1.63;;;19.80;68.70;;;;;;5097131;28;20454;-61
2023/09/19 10:10:15;;;;;;;12.60;2.80;;;19.70;68.10;;;;;;5097121;28;20469;-62
2023/09/19 10:12:47;;;;;;;5.40;2.10;;;19.70;67.50;;;;;;5096898;28;20478;-62
2023/09/19 10:15:16;;;;;;;7.13;2.40;;;19.70;67.00;;;;;;5096143;28;20447;-61
2023/09/19 10:17:45;;;;;;;7.03;2.23;;;19.80;67.20;;;;;;5097388;28;20944;-63
2023/09/19 10:20:33;;;;;;;8.50;2.50;;;19.90;67.40;;;;;;5097036;28;20481;-61
2023/09/19 10:23:09;;;;;;;5.03;2.23;;;20.10;67.20;;;;;;5096838;28;20964;-61
2023/09/19 10:25:38;;;;;;;6.17;1.93;;;20.30;66.50;;;;;;5099108;28;20427;-62
2023/09/19 10:28:10;;;;;;;9.27;2.90;;;20.50;65.90;;;;;;5098457;28;20999;-62
2023/09/19 10:30:43;;;;;;;8.33;2.53;;;20.50;65.00;;;;;;5099048;28;20438;-61
2023/09/19 10:33:10;;;;;;;4.60;2.40;;;20.60;64.30;;;;;;5098719;28;20664;-62
2023/09/19 10:35:40;;;;;;;7.47;2.90;;;20.60;64.40;;;;;;5097304;28;20955;-61
2023/09/19 10:38:11;;;;;;;4.40;2.10;;;20.60;64.20;;;;;;5098293;28;20849;-62
2023/09/19 10:40:43;;;;;;;4.83;2.37;;;20.50;63.90;;;;;;5097291;28;20423;-61
2023/09/19 10:43:14;;;;;;;5.57;2.40;;;20.40;63.60;;;;;;5097482;28;20979;-62
2023/09/19 10:45:44;;;;;;;5.77;2.47;;;20.40;63.30;;;;;;5096772;28;20488;-61
2023/09/19 10:48:12;;;;;;;8.27;2.50;;;20.40;63.40;;;;;;5097255;28;20435;-61
2023/09/19 10:50:46;;;;;;;7.57;2.30;;;20.50;63.30;;;;;;5096995;28;20451;-61
2023/09/19 10:53:16;;;;;;;6.00;2.77;;;20.50;62.70;;;;;;5096695;28;20549;-61
2023/09/19 10:55:51;;;;;;;11.23;2.80;;;20.60;62.50;;;;;;5098287;28;20431;-61
2023/09/19 10:58:29;;;;;;;7.33;2.37;;;20.60;62.40;;;;;;5098497;28;20935;-62
2023/09/19 11:01:01;;;;;;;7.60;2.97;;;20.70;62.30;;;;;;5097976;28;20882;-61
2023/09/19 11:03:30;;;;;;;8.77;2.70;;;20.70;61.90;;;;;;5095977;28;20473;-62
2023/09/19 11:06:13;;;;;;;6.17;2.43;;;20.90;62.00;;;;;;5096142;28;20438;-61
2023/09/19 11:08:57;;;;;;;4.00;2.17;;;21.00;61.20;;;;;;5096485;28;20423;-62
2023/09/19 11:11:46;;;;;;;6.97;2.00;;;21.10;60.40;;;;;;5096065;28;20516;-62
2023/09/19 11:14:35;;;;;;;5.87;2.43;;;21.10;59.60;;;;;;5098457;28;20458;-61
2023/09/19 11:17:41;;;;;;;3.90;2.23;;;21.00;58.90;;;;;;5100172;28;20425;-61
2023/09/19 11:20:39;;;;;;;7.50;3.10;;;21.00;58.90;;;;;;5098207;28;20442;-61
2023/09/19 11:23:22;;;;;;;7.37;2.57;;;21.00;58.90;;;;;;5097758;28;20455;-61
2023/09/19 11:25:53;;;;;;;6.00;2.57;;;21.00;58.80;;;;;;5098538;28;20488;-61
2023/09/19 11:28:38;;;;;;;5.40;3.40;;;21.10;58.80;;;;;;5098835;28;20816;-61
2023/09/19 11:31:56;;;;;;;5.60;1.90;;;21.20;58.90;;;;;;5095844;28;20476;-61
2023/09/19 11:34:45;;;;;;;4.23;2.00;;;21.30;58.50;;;;;;5071843;28;20486;-61
2023/09/19 11:38:10;;;;;;;5.67;2.23;;;21.50;58.20;;;;;;5096595;28;20450;-61
2023/09/19 11:40:38;;;;;;;6.07;2.40;;;21.50;57.50;;;;;;5097747;28;20434;-60
2023/09/19 11:43:34;;;;;;;9.53;2.27;;;21.50;57.20;;;;;;5098847;28;20541;-61
2023/09/19 11:46:08;;;;;;;6.57;2.10;;;21.40;57.10;;;;;;5097472;28;20423;-60
2023/09/19 11:48:37;;;;;;;4.93;2.30;;;21.30;57.00;;;;;;5096987;28;20984;-60
2023/09/19 11:51:19;;;;;;;5.17;2.47;;;21.30;57.10;;;;;;5096976;28;20505;-61
2023/09/19 11:53:48;;;;;;;4.80;2.40;;;21.30;56.90;;;;;;5095836;28;20807;-60
2023/09/19 11:56:17;;;;;;;4.40;2.03;;;21.30;56.60;;;;;;5094672;28;20904;-60
2023/09/19 11:58:48;;;;;;;6.83;2.77;;;21.20;56.70;;;;;;5099353;28;20435;-61
2023/09/19 12:01:21;;;;;;;7.07;2.37;;;21.30;56.50;;;;;;5097889;28;20550;-62
2023/09/19 12:03:53;;;;;;;5.03;2.40;;;21.20;56.50;;;;;;5096572;28;20821;-62
2023/09/19 12:06:21;;;;;;;5.80;2.80;;;21.20;56.80;;;;;;5097236;28;20431;-61
2023/09/19 12:08:49;;;;;;;5.50;2.90;;;21.30;57.00;;;;;;5096971;28;20461;-62
2023/09/19 12:11:17;;;;;;;6.77;2.40;;;21.40;56.90;;;;;;5097802;28;20475;-62
2023/09/19 12:13:48;;;;;;;5.97;2.23;;;21.50;56.70;;;;;;5098221;28;20478;-62
2023/09/19 12:16:16;;;;;;;8.73;2.20;;;21.50;56.50;;;;;;5103172;28;20451;-63
2023/09/19 12:18:44;;;;;;;6.20;2.13;;;21.50;56.40;;;;;;5096161;28;20470;-63
2023/09/19 12:21:23;;;;;;;3.23;2.30;;;21.50;56.50;;;;;;5095737;28;20463;-62
2023/09/19 12:24:05;;;;;;;5.73;2.40;;;21.50;56.40;;;;;;5095297;28;20784;-63
2023/09/19 12:26:40;;;;;;;4.43;1.97;;;21.60;56.50;;;;;;5095367;28;20427;-61
2023/09/19 12:29:13;;;;;;;6.53;3.17;;;21.60;56.60;;;;;;5093563;28;20449;-62
2023/09/19 12:31:51;;;;;;;3.87;2.40;;;21.60;56.30;;;;;;5093799;28;20532;-62
2023/09/19 12:34:22;;;;;;;7.17;2.10;;;21.50;56.20;;;;;;5097973;28;21028;-62
2023/09/19 12:36:49;;;;;;;3.47;2.63;;;21.50;56.50;;;;;;5098787;28;20859;-62
2023/09/19 12:39:26;;;;;;;8.20;2.40;;;21.50;56.50;;;;;;5099355;28;20860;-61
2023/09/19 12:41:54;;;;;;;5.07;2.77;;;21.50;56.30;;;;;;5098418;28;20575;-62
2023/09/19 12:44:25;;;;;;;6.80;3.00;;;21.50;56.30;;;;;;5098436;28;20438;-62
2023/09/19 12:46:54;;;;;;;7.93;2.43;;;21.50;56.40;;;;;;5098016;28;20434;-61
2023/09/19 12:49:21;;;;;;;7.23;2.57;;;21.50;56.30;;;;;;5097742;28;20457;-62
2023/09/19 12:51:48;;;;;;;3.93;2.37;;;21.40;56.30;;;;;;5098900;28;20470;-62
2023/09/19 12:54:16;;;;;;;4.97;2.80;;;21.40;56.20;;;;;;5099046;28;20498;-63
2023/09/19 12:56:47;;;;;;;4.13;2.10;;;21.40;56.30;;;;;;5099076;28;20450;-63
2023/09/19 12:59:16;;;;;;;4.27;2.20;;;21.50;56.50;;;;;;5099147;28;20476;-62
2023/09/19 13:01:46;;;;;;;5.23;2.63;;;21.60;56.30;;;;;;5098966;28;20476;-62
2023/09/19 13:04:18;;;;;;;3.03;1.77;;;21.60;56.30;;;;;;5099905;28;20433;-61
2023/09/19 13:06:45;;;;;;;4.60;2.47;;;21.60;56.20;;;;;;5097995;28;20892;-63
2023/09/19 13:09:14;;;;;;;4.33;2.40;;;21.50;56.00;;;;;;5097611;28;20944;-61